createdAt,value
2023-03-24T16:22:11.078Z,74598.84
2023-03-24T16:24:37.542Z,74613.00
2023-03-24T16:27:04.919Z,74606.94
2023-03-24T16:29:31.904Z,74615.03
2023-03-24T16:31:58.832Z,74615.03
2023-03-24T16:34:25.548Z,74629.19
2023-03-24T16:36:54.213Z,74629.19
2023-03-24T16:39:26.108Z,74635.25
2023-03-24T16:41:52.659Z,74657.53
2023-03-24T16:44:20.884Z,74698.00
2023-03-24T16:46:48.875Z,74728.34
2023-03-24T16:49:17.572Z,74768.81
2023-03-24T16:51:45.296Z,74829.53
2023-03-24T16:54:11.815Z,74847.75
2023-03-24T16:56:38.936Z,74906.41
2023-03-24T16:59:05.905Z,74930.69
2023-03-24T17:01:33.857Z,74967.13
2023-03-24T17:04:04.215Z,75035.94
2023-03-24T17:06:32.766Z,75064.25
2023-03-24T17:08:59.574Z,75092.59
2023-03-24T17:11:37.199Z,75133.06
2023-03-24T17:14:08.269Z,75153.31
2023-03-24T17:16:37.016Z,75157.34
2023-03-24T17:19:07.903Z,75175.56
2023-03-24T17:21:37.263Z,75197.84
2023-03-24T17:24:06.732Z,75209.97
2023-03-24T17:26:33.214Z,75214.03
2023-03-24T17:28:59.701Z,75209.97
2023-03-24T17:31:26.268Z,75224.13
2023-03-24T17:33:52.817Z,75230.22
2023-03-24T17:36:19.442Z,75238.31
2023-03-24T17:38:48.930Z,75246.41
2023-03-24T17:41:15.927Z,75250.44
2023-03-24T17:43:42.473Z,75244.38
2023-03-24T17:46:09.021Z,75230.22
2023-03-24T17:48:37.201Z,75236.28
2023-03-24T17:51:04.915Z,75224.13
2023-03-24T17:53:33.581Z,75230.22
2023-03-24T17:56:05.514Z,75234.25
2023-03-24T17:58:33.871Z,75220.09
2023-03-24T18:01:07.756Z,75218.06
2023-03-24T18:03:37.655Z,75216.03
2023-03-24T18:06:08.934Z,75212.00
2023-03-24T18:08:36.200Z,75226.16
2023-03-24T18:11:08.215Z,75226.16
2023-03-24T18:13:34.744Z,75205.94
2023-03-24T18:16:13.371Z,75212.00
2023-03-24T18:18:46.957Z,75207.94
2023-03-24T18:21:14.692Z,75209.97
2023-03-24T18:23:41.179Z,75201.88
2023-03-24T18:26:08.984Z,75201.88
2023-03-24T18:28:37.830Z,75193.78
2023-03-24T18:31:12.662Z,75201.88
2023-03-24T18:33:42.701Z,75205.94
2023-03-24T18:36:10.325Z,75201.88
2023-03-24T18:38:37.062Z,75205.94
2023-03-24T18:41:06.581Z,75212.00
2023-03-24T18:43:41.168Z,75209.97
2023-03-24T18:46:10.014Z,75216.03
2023-03-24T18:48:41.819Z,75214.03
2023-03-24T18:51:08.676Z,75205.94
2023-03-24T18:53:35.431Z,75207.94
2023-03-24T18:56:02.633Z,75209.97
2023-03-24T18:58:29.713Z,75197.84
2023-03-24T19:00:57.620Z,75185.69
2023-03-24T19:03:25.286Z,75189.75
2023-03-24T19:05:55.065Z,75197.84
2023-03-24T19:08:22.101Z,75197.84
2023-03-24T19:10:49.045Z,75189.75
2023-03-24T19:13:16.933Z,75197.84
2023-03-24T19:15:47.242Z,75191.75
2023-03-24T19:18:14.023Z,75185.69
2023-03-24T19:20:41.988Z,75185.69
2023-03-24T19:23:08.924Z,75181.63
2023-03-24T19:25:35.407Z,75185.69
2023-03-24T19:28:01.902Z,75175.56
2023-03-24T19:30:29.439Z,75177.59
2023-03-24T19:32:56.874Z,75181.63
2023-03-24T19:35:23.683Z,75185.69
2023-03-24T19:37:50.380Z,75181.63
2023-03-24T19:40:16.998Z,75191.75
2023-03-24T19:42:45.053Z,75185.69
2023-03-24T19:45:14.300Z,75187.72
2023-03-24T19:47:40.987Z,75189.75
2023-03-24T19:50:08.050Z,75175.56
2023-03-24T19:52:35.124Z,75173.53
2023-03-24T19:55:02.256Z,75163.44
2023-03-24T19:57:32.938Z,75167.47
2023-03-24T19:59:59.430Z,75161.41
2023-03-24T20:02:26.363Z,75163.44
2023-03-24T20:04:55.157Z,75165.44
2023-03-24T20:07:23.059Z,75177.59
2023-03-24T20:09:49.589Z,75201.88
2023-03-24T20:12:16.266Z,75205.94
2023-03-24T20:14:42.820Z,75197.84
2023-03-24T20:17:16.576Z,75203.91
2023-03-24T20:19:43.293Z,75242.34
2023-03-24T20:22:09.810Z,75244.38
2023-03-24T20:24:38.677Z,75270.69
2023-03-24T20:27:06.776Z,75274.72
2023-03-24T20:29:33.646Z,75266.63
2023-03-24T20:32:00.472Z,75278.78
2023-03-24T20:34:27.221Z,75292.94
2023-03-24T20:36:53.776Z,75290.94
2023-03-24T20:39:20.555Z,75309.13
2023-03-24T20:41:47.105Z,75315.22
2023-03-24T20:44:13.607Z,75307.13
2023-03-24T20:46:40.226Z,75319.25
2023-03-24T20:49:08.353Z,75303.06
2023-03-24T20:51:34.933Z,75294.97
2023-03-24T20:54:01.653Z,75294.97
2023-03-24T20:56:28.238Z,75299.03
2023-03-24T20:58:54.794Z,75323.31
2023-03-24T21:01:22.142Z,75321.28
2023-03-24T21:03:51.064Z,75341.53
2023-03-24T21:06:18.168Z,75343.53
2023-03-24T21:08:45.474Z,75361.75
2023-03-24T21:11:12.817Z,75351.63
2023-03-24T21:13:39.822Z,75351.63
2023-03-24T21:16:08.847Z,75341.53
2023-03-24T21:18:36.948Z,75363.78
2023-03-24T21:21:05.693Z,75367.84
2023-03-24T21:23:34.173Z,75367.84
2023-03-24T21:26:02.776Z,75377.94
2023-03-24T21:28:31.036Z,75373.91
2023-03-24T21:30:58.615Z,75379.97
2023-03-24T21:33:25.538Z,75382.00
2023-03-24T21:35:55.155Z,75386.03
2023-03-24T21:38:21.731Z,75379.97
2023-03-24T21:40:48.232Z,75388.06
2023-03-24T21:43:14.875Z,75379.97
2023-03-24T21:45:46.334Z,75379.97
2023-03-24T21:48:14.060Z,75363.78
2023-03-24T21:50:42.696Z,75363.78
2023-03-24T21:53:15.075Z,75371.88
2023-03-24T21:55:48.775Z,75379.97
2023-03-24T21:58:15.779Z,75384.03
2023-03-24T22:00:42.264Z,75382.00
2023-03-24T22:03:08.871Z,75396.16
2023-03-24T22:05:38.820Z,75424.50
2023-03-24T22:08:06.950Z,75426.53
2023-03-24T22:10:42.454Z,75420.44
2023-03-24T22:13:10.329Z,75416.41
2023-03-24T22:15:36.960Z,75428.53
2023-03-24T22:18:04.348Z,75420.44
2023-03-24T22:20:32.066Z,75432.59
2023-03-24T22:23:04.384Z,75444.75
2023-03-24T22:25:32.084Z,75477.13
2023-03-24T22:27:58.652Z,75491.28
2023-03-24T22:30:25.176Z,75509.50
2023-03-24T22:32:51.785Z,75517.59
2023-03-24T22:35:18.531Z,75513.56
2023-03-24T22:37:45.237Z,75523.66
2023-03-24T22:40:11.802Z,75533.78
2023-03-24T22:42:38.472Z,75545.94
2023-03-24T22:45:05.651Z,75537.84
2023-03-24T22:47:32.202Z,75543.91
2023-03-24T22:49:58.793Z,75539.88
2023-03-24T22:52:27.662Z,75558.06
2023-03-24T22:54:54.554Z,75594.50
2023-03-24T22:57:21.091Z,75606.66
2023-03-24T22:59:47.659Z,75622.84
2023-03-24T23:02:14.224Z,75639.03
2023-03-24T23:04:41.735Z,75637.00
2023-03-24T23:07:08.327Z,75639.03
2023-03-24T23:09:34.829Z,75630.94
2023-03-24T23:12:01.494Z,75647.13
2023-03-24T23:14:28.058Z,75641.06
2023-03-24T23:16:56.291Z,75659.28
2023-03-24T23:19:23.227Z,75651.19
2023-03-24T23:21:49.783Z,75639.03
2023-03-24T23:24:16.993Z,75659.28
2023-03-24T23:26:43.731Z,75663.31
2023-03-24T23:29:10.237Z,75667.38
2023-03-24T23:31:36.921Z,75667.38
2023-03-24T23:34:07.394Z,75673.44
2023-03-24T23:36:34.230Z,75679.50
2023-03-24T23:39:01.057Z,75675.47
2023-03-24T23:41:27.659Z,75675.47
2023-03-24T23:43:54.996Z,75681.53
2023-03-24T23:46:23.803Z,75691.66
2023-03-24T23:48:50.863Z,75707.84
2023-03-24T23:51:18.312Z,75703.81
2023-03-24T23:53:44.772Z,75687.63
2023-03-24T23:56:14.818Z,75687.63
2023-03-24T23:58:42.598Z,75691.66
